sensor_id;sensor_type;location;lat;lon;timestamp;P1;durP1;ratioP1;P2;durP2;ratioP2
25123;SDS011;13104;51.030;4.686;2023-11-21T00:00:27;11.38;;;4.78;;
25123;SDS011;13104;51.030;4.686;2023-11-21T00:02:53;11.15;;;5.55;;
25123;SDS011;13104;51.030;4.686;2023-11-21T00:05:19;7.63;;;5.00;;
25123;SDS011;13104;51.030;4.686;2023-11-21T00:07:48;8.55;;;5.05;;
25123;SDS011;13104;51.030;4.686;2023-11-21T00:10:14;17.35;;;5.13;;
25123;SDS011;13104;51.030;4.686;2023-11-21T00:12:41;8.05;;;5.07;;
25123;SDS011;13104;51.030;4.686;2023-11-21T00:15:07;11.57;;;4.55;;
25123;SDS011;13104;51.030;4.686;2023-11-21T00:17:40;13.73;;;5.78;;
25123;SDS011;13104;51.030;4.686;2023-11-21T00:20:07;14.90;;;5.85;;
25123;SDS011;13104;51.030;4.686;2023-11-21T00:22:34;12.35;;;5.45;;
25123;SDS011;13104;51.030;4.686;2023-11-21T00:25:00;11.55;;;5.55;;
25123;SDS011;13104;51.030;4.686;2023-11-21T00:27:28;12.80;;;5.75;;
25123;SDS011;13104;51.030;4.686;2023-11-21T00:29:54;10.50;;;5.40;;
25123;SDS011;13104;51.030;4.686;2023-11-21T00:32:20;13.23;;;6.25;;
25123;SDS011;13104;51.030;4.686;2023-11-21T00:34:46;17.30;;;6.97;;
25123;SDS011;13104;51.030;4.686;2023-11-21T00:37:13;10.40;;;6.18;;
25123;SDS011;13104;51.030;4.686;2023-11-21T00:39:40;14.80;;;6.00;;
25123;SDS011;13104;51.030;4.686;2023-11-21T00:42:06;11.27;;;5.97;;
25123;SDS011;13104;51.030;4.686;2023-11-21T00:44:33;24.88;;;6.72;;
25123;SDS011;13104;51.030;4.686;2023-11-21T00:46:59;12.07;;;5.93;;
25123;SDS011;13104;51.030;4.686;2023-11-21T00:49:26;14.57;;;7.15;;
25123;SDS011;13104;51.030;4.686;2023-11-21T00:51:53;10.82;;;5.43;;
25123;SDS011;13104;51.030;4.686;2023-11-21T00:54:19;12.68;;;6.43;;
25123;SDS011;13104;51.030;4.686;2023-11-21T00:56:45;23.98;;;6.30;;
25123;SDS011;13104;51.030;4.686;2023-11-21T00:59:13;10.98;;;6.75;;
25123;SDS011;13104;51.030;4.686;2023-11-21T01:01:39;12.43;;;6.45;;
25123;SDS011;13104;51.030;4.686;2023-11-21T01:04:05;13.50;;;5.65;;
25123;SDS011;13104;51.030;4.686;2023-11-21T01:06:34;11.25;;;6.90;;
25123;SDS011;13104;51.030;4.686;2023-11-21T01:09:00;10.48;;;5.50;;
25123;SDS011;13104;51.030;4.686;2023-11-21T01:11:29;10.10;;;6.15;;
25123;SDS011;13104;51.030;4.686;2023-11-21T01:13:55;10.02;;;6.13;;
25123;SDS011;13104;51.030;4.686;2023-11-21T01:16:21;15.88;;;6.72;;
25123;SDS011;13104;51.030;4.686;2023-11-21T01:18:47;12.48;;;6.85;;
25123;SDS011;13104;51.030;4.686;2023-11-21T01:21:13;10.18;;;5.15;;
25123;SDS011;13104;51.030;4.686;2023-11-21T01:23:39;9.32;;;4.97;;
25123;SDS011;13104;51.030;4.686;2023-11-21T01:26:05;10.88;;;5.63;;
25123;SDS011;13104;51.030;4.686;2023-11-21T01:28:33;13.23;;;6.07;;
25123;SDS011;13104;51.030;4.686;2023-11-21T01:31:00;12.05;;;6.05;;
25123;SDS011;13104;51.030;4.686;2023-11-21T01:33:26;13.63;;;6.22;;
25123;SDS011;13104;51.030;4.686;2023-11-21T01:35:52;12.00;;;5.90;;
25123;SDS011;13104;51.030;4.686;2023-11-21T01:38:20;12.43;;;6.15;;
25123;SDS011;13104;51.030;4.686;2023-11-21T01:40:46;17.52;;;7.18;;
25123;SDS011;13104;51.030;4.686;2023-11-21T01:43:12;14.40;;;6.15;;
25123;SDS011;13104;51.030;4.686;2023-11-21T01:45:38;14.32;;;6.03;;
25123;SDS011;13104;51.030;4.686;2023-11-21T01:48:04;12.52;;;5.82;;
25123;SDS011;13104;51.030;4.686;2023-11-21T01:50:31;17.90;;;6.05;;
25123;SDS011;13104;51.030;4.686;2023-11-21T01:52:58;11.48;;;5.13;;
25123;SDS011;13104;51.030;4.686;2023-11-21T01:55:26;12.27;;;5.15;;
25123;SDS011;13104;51.030;4.686;2023-11-21T01:57:53;7.93;;;5.20;;
25123;SDS011;13104;51.030;4.686;2023-11-21T02:00:19;10.45;;;5.30;;
25123;SDS011;13104;51.030;4.686;2023-11-21T02:02:45;15.88;;;6.38;;
25123;SDS011;13104;51.030;4.686;2023-11-21T02:05:13;11.55;;;5.07;;
25123;SDS011;13104;51.030;4.686;2023-11-21T02:07:40;10.23;;;5.80;;
25123;SDS011;13104;51.030;4.686;2023-11-21T02:10:08;13.75;;;5.13;;
25123;SDS011;13104;51.030;4.686;2023-11-21T02:12:34;10.98;;;5.60;;
25123;SDS011;13104;51.030;4.686;2023-11-21T02:15:02;8.18;;;4.53;;
25123;SDS011;13104;51.030;4.686;2023-11-21T02:17:39;10.85;;;5.68;;
25123;SDS011;13104;51.030;4.686;2023-11-21T02:20:06;11.77;;;5.22;;
25123;SDS011;13104;51.030;4.686;2023-11-21T02:22:32;9.43;;;5.10;;
25123;SDS011;13104;51.030;4.686;2023-11-21T02:25:00;8.38;;;5.38;;
25123;SDS011;13104;51.030;4.686;2023-11-21T02:27:27;8.95;;;4.85;;
25123;SDS011;13104;51.030;4.686;2023-11-21T02:29:53;8.02;;;4.68;;
25123;SDS011;13104;51.030;4.686;2023-11-21T02:32:20;6.60;;;4.57;;
25123;SDS011;13104;51.030;4.686;2023-11-21T02:34:48;10.82;;;5.68;;
25123;SDS011;13104;51.030;4.686;2023-11-21T02:37:15;7.78;;;5.05;;
25123;SDS011;13104;51.030;4.686;2023-11-21T02:39:41;8.35;;;4.68;;
25123;SDS011;13104;51.030;4.686;2023-11-21T02:42:07;7.63;;;4.85;;
25123;SDS011;13104;51.030;4.686;2023-11-21T02:44:33;10.43;;;5.13;;
25123;SDS011;13104;51.030;4.686;2023-11-21T02:47:00;13.95;;;5.28;;
25123;SDS011;13104;51.030;4.686;2023-11-21T02:49:26;12.70;;;5.57;;
25123;SDS011;13104;51.030;4.686;2023-11-21T02:51:55;10.20;;;6.25;;
25123;SDS011;13104;51.030;4.686;2023-11-21T02:54:22;8.73;;;4.60;;
25123;SDS011;13104;51.030;4.686;2023-11-21T02:56:48;12.13;;;5.00;;
25123;SDS011;13104;51.030;4.686;2023-11-21T02:59:15;11.48;;;5.53;;
25123;SDS011;13104;51.030;4.686;2023-11-21T03:01:41;13.48;;;6.18;;
25123;SDS011;13104;51.030;4.686;2023-11-21T03:04:07;8.60;;;5.43;;
25123;SDS011;13104;51.030;4.686;2023-11-21T03:06:33;9.20;;;4.65;;
25123;SDS011;13104;51.030;4.686;2023-11-21T03:08:59;11.07;;;5.78;;
25123;SDS011;13104;51.030;4.686;2023-11-21T03:11:26;11.50;;;5.07;;
25123;SDS011;13104;51.030;4.686;2023-11-21T03:13:52;18.15;;;5.57;;
25123;SDS011;13104;51.030;4.686;2023-11-21T03:16:18;8.60;;;4.88;;
25123;SDS011;13104;51.030;4.686;2023-11-21T03:18:44;13.43;;;4.95;;
25123;SDS011;13104;51.030;4.686;2023-11-21T03:21:10;11.77;;;5.50;;
25123;SDS011;13104;51.030;4.686;2023-11-21T03:23:36;14.75;;;5.72;;
25123;SDS011;13104;51.030;4.686;2023-11-21T03:26:03;12.20;;;5.45;;
25123;SDS011;13104;51.030;4.686;2023-11-21T03:28:29;13.63;;;4.72;;
25123;SDS011;13104;51.030;4.686;2023-11-21T03:30:55;9.90;;;5.35;;
25123;SDS011;13104;51.030;4.686;2023-11-21T03:33:21;9.23;;;5.00;;
25123;SDS011;13104;51.030;4.686;2023-11-21T03:35:48;10.57;;;5.25;;
25123;SDS011;13104;51.030;4.686;2023-11-21T03:38:14;10.07;;;4.80;;
25123;SDS011;13104;51.030;4.686;2023-11-21T03:40:41;9.45;;;4.55;;
25123;SDS011;13104;51.030;4.686;2023-11-21T03:43:07;10.43;;;4.95;;
25123;SDS011;13104;51.030;4.686;2023-11-21T03:45:33;10.70;;;4.70;;
25123;SDS011;13104;51.030;4.686;2023-11-21T03:47:59;17.05;;;5.53;;
25123;SDS011;13104;51.030;4.686;2023-11-21T03:50:27;7.30;;;4.50;;
25123;SDS011;13104;51.030;4.686;2023-11-21T03:52:53;11.35;;;4.65;;
25123;SDS011;13104;51.030;4.686;2023-11-21T03:55:20;9.13;;;4.22;;
25123;SDS011;13104;51.030;4.686;2023-11-21T03:57:46;7.47;;;4.97;;
25123;SDS011;13104;51.030;4.686;2023-11-21T04:00:12;9.20;;;3.70;;
25123;SDS011;13104;51.030;4.686;2023-11-21T04:02:38;12.90;;;5.68;;
25123;SDS011;13104;51.030;4.686;2023-11-21T04:05:05;15.65;;;5.13;;
25123;SDS011;13104;51.030;4.686;2023-11-21T04:07:32;11.45;;;5.43;;
25123;SDS011;13104;51.030;4.686;2023-11-21T04:09:59;8.45;;;4.70;;
25123;SDS011;13104;51.030;4.686;2023-11-21T04:12:25;15.65;;;5.07;;
25123;SDS011;13104;51.030;4.686;2023-11-21T04:14:51;9.18;;;4.60;;
25123;SDS011;13104;51.030;4.686;2023-11-21T04:17:18;9.25;;;4.60;;
25123;SDS011;13104;51.030;4.686;2023-11-21T04:19:44;15.18;;;4.80;;
25123;SDS011;13104;51.030;4.686;2023-11-21T04:22:11;10.52;;;4.45;;
25123;SDS011;13104;51.030;4.686;2023-11-21T04:24:37;11.48;;;4.53;;
25123;SDS011;13104;51.030;4.686;2023-11-21T04:27:03;6.97;;;4.18;;
25123;SDS011;13104;51.030;4.686;2023-11-21T04:29:29;9.70;;;4.40;;
25123;SDS011;13104;51.030;4.686;2023-11-21T04:31:55;11.10;;;4.47;;
25123;SDS011;13104;51.030;4.686;2023-11-21T04:34:22;7.13;;;4.75;;
25123;SDS011;13104;51.030;4.686;2023-11-21T04:36:48;13.70;;;5.15;;
25123;SDS011;13104;51.030;4.686;2023-11-21T04:39:14;8.50;;;4.70;;
25123;SDS011;13104;51.030;4.686;2023-11-21T04:41:40;7.72;;;4.30;;
25123;SDS011;13104;51.030;4.686;2023-11-21T04:44:06;13.73;;;5.07;;
25123;SDS011;13104;51.030;4.686;2023-11-21T04:46:32;8.05;;;4.03;;
25123;SDS011;13104;51.030;4.686;2023-11-21T04:48:58;17.83;;;5.35;;
25123;SDS011;13104;51.030;4.686;2023-11-21T04:51:24;7.85;;;4.60;;
25123;SDS011;13104;51.030;4.686;2023-11-21T04:53:51;11.32;;;4.40;;
25123;SDS011;13104;51.030;4.686;2023-11-21T04:56:17;11.00;;;4.65;;
25123;SDS011;13104;51.030;4.686;2023-11-21T04:58:43;8.27;;;4.40;;
25123;SDS011;13104;51.030;4.686;2023-11-21T05:01:09;8.13;;;4.25;;
25123;SDS011;13104;51.030;4.686;2023-11-21T05:03:35;9.13;;;4.50;;
25123;SDS011;13104;51.030;4.686;2023-11-21T05:06:03;8.32;;;4.93;;
25123;SDS011;13104;51.030;4.686;2023-11-21T05:08:30;10.45;;;4.53;;
25123;SDS011;13104;51.030;4.686;2023-11-21T05:10:56;7.82;;;3.63;;
25123;SDS011;13104;51.030;4.686;2023-11-21T05:13:22;13.15;;;4.80;;
25123;SDS011;13104;51.030;4.686;2023-11-21T05:15:52;18.25;;;4.40;;
25123;SDS011;13104;51.030;4.686;2023-11-21T05:18:18;11.40;;;5.28;;
25123;SDS011;13104;51.030;4.686;2023-11-21T05:20:44;7.00;;;4.15;;
25123;SDS011;13104;51.030;4.686;2023-11-21T05:23:12;6.28;;;3.78;;
25123;SDS011;13104;51.030;4.686;2023-11-21T05:25:38;13.77;;;4.53;;
25123;SDS011;13104;51.030;4.686;2023-11-21T05:28:04;10.05;;;4.55;;
25123;SDS011;13104;51.030;4.686;2023-11-21T05:30:31;7.00;;;4.35;;
25123;SDS011;13104;51.030;4.686;2023-11-21T05:32:57;8.63;;;4.32;;
25123;SDS011;13104;51.030;4.686;2023-11-21T05:35:24;7.82;;;4.10;;
25123;SDS011;13104;51.030;4.686;2023-11-21T05:37:50;7.35;;;3.45;;
25123;SDS011;13104;51.030;4.686;2023-11-21T05:40:16;7.20;;;4.20;;
25123;SDS011;13104;51.030;4.686;2023-11-21T05:42:42;8.52;;;4.40;;
25123;SDS011;13104;51.030;4.686;2023-11-21T05:45:08;10.07;;;3.60;;
25123;SDS011;13104;51.030;4.686;2023-11-21T05:47:39;15.93;;;4.78;;
25123;SDS011;13104;51.030;4.686;2023-11-21T05:50:05;7.13;;;3.95;;
25123;SDS011;13104;51.030;4.686;2023-11-21T05:52:35;6.55;;;4.13;;
25123;SDS011;13104;51.030;4.686;2023-11-21T05:55:01;8.50;;;4.50;;
25123;SDS011;13104;51.030;4.686;2023-11-21T05:57:27;8.10;;;4.10;;
25123;SDS011;13104;51.030;4.686;2023-11-21T05:59:53;8.80;;;4.13;;
25123;SDS011;13104;51.030;4.686;2023-11-21T06:02:19;8.02;;;4.32;;
25123;SDS011;13104;51.030;4.686;2023-11-21T06:04:46;10.45;;;4.00;;
25123;SDS011;13104;51.030;4.686;2023-11-21T06:07:12;6.28;;;3.55;;
25123;SDS011;13104;51.030;4.686;2023-11-21T06:09:38;11.57;;;4.95;;
25123;SDS011;13104;51.030;4.686;2023-11-21T06:12:04;9.00;;;4.22;;
25123;SDS011;13104;51.030;4.686;2023-11-21T06:14:30;6.68;;;3.33;;
25123;SDS011;13104;51.030;4.686;2023-11-21T06:17:00;11.40;;;4.65;;
25123;SDS011;13104;51.030;4.686;2023-11-21T06:19:26;11.63;;;4.18;;
25123;SDS011;13104;51.030;4.686;2023-11-21T06:21:52;3.55;;;3.03;;
25123;SDS011;13104;51.030;4.686;2023-11-21T06:24:18;7.70;;;4.50;;
25123;SDS011;13104;51.030;4.686;2023-11-21T06:26:45;7.47;;;4.30;;
25123;SDS011;13104;51.030;4.686;2023-11-21T06:29:13;6.00;;;4.25;;
25123;SDS011;13104;51.030;4.686;2023-11-21T06:31:40;11.07;;;4.68;;
25123;SDS011;13104;51.030;4.686;2023-11-21T06:34:06;9.73;;;5.18;;
25123;SDS011;13104;51.030;4.686;2023-11-21T06:36:34;10.90;;;4.78;;
25123;SDS011;13104;51.030;4.686;2023-11-21T06:39:01;8.27;;;4.43;;
25123;SDS011;13104;51.030;4.686;2023-11-21T06:41:27;10.10;;;4.75;;
25123;SDS011;13104;51.030;4.686;2023-11-21T06:43:54;9.50;;;4.07;;
25123;SDS011;13104;51.030;4.686;2023-11-21T06:46:20;10.13;;;4.75;;
25123;SDS011;13104;51.030;4.686;2023-11-21T06:48:46;7.30;;;4.57;;
25123;SDS011;13104;51.030;4.686;2023-11-21T06:51:14;8.05;;;4.43;;
25123;SDS011;13104;51.030;4.686;2023-11-21T06:53:40;7.07;;;4.18;;
25123;SDS011;13104;51.030;4.686;2023-11-21T06:56:27;10.65;;;4.32;;
25123;SDS011;13104;51.030;4.686;2023-11-21T06:58:53;4.63;;;3.95;;
25123;SDS011;13104;51.030;4.686;2023-11-21T07:01:19;6.78;;;4.10;;
25123;SDS011;13104;51.030;4.686;2023-11-21T07:03:45;9.80;;;4.65;;
25123;SDS011;13104;51.030;4.686;2023-11-21T07:06:11;6.78;;;4.65;;
25123;SDS011;13104;51.030;4.686;2023-11-21T07:08:37;11.43;;;4.95;;
25123;SDS011;13104;51.030;4.686;2023-11-21T07:11:04;15.73;;;4.93;;
25123;SDS011;13104;51.030;4.686;2023-11-21T07:13:30;8.68;;;3.70;;
25123;SDS011;13104;51.030;4.686;2023-11-21T07:15:57;9.45;;;4.10;;
25123;SDS011;13104;51.030;4.686;2023-11-21T07:18:23;12.75;;;3.95;;
25123;SDS011;13104;51.030;4.686;2023-11-21T07:20:50;6.55;;;3.63;;
25123;SDS011;13104;51.030;4.686;2023-11-21T07:23:16;9.27;;;4.47;;
25123;SDS011;13104;51.030;4.686;2023-11-21T07:25:43;9.70;;;4.72;;
25123;SDS011;13104;51.030;4.686;2023-11-21T07:28:09;7.95;;;4.40;;
25123;SDS011;13104;51.030;4.686;2023-11-21T07:30:35;5.97;;;4.32;;
25123;SDS011;13104;51.030;4.686;2023-11-21T07:33:02;9.55;;;4.22;;
25123;SDS011;13104;51.030;4.686;2023-11-21T07:35:28;7.03;;;4.18;;
25123;SDS011;13104;51.030;4.686;2023-11-21T07:37:54;7.95;;;4.57;;
25123;SDS011;13104;51.030;4.686;2023-11-21T07:40:21;8.73;;;4.13;;
25123;SDS011;13104;51.030;4.686;2023-11-21T07:42:47;14.27;;;5.10;;
25123;SDS011;13104;51.030;4.686;2023-11-21T07:45:15;9.00;;;5.05;;
25123;SDS011;13104;51.030;4.686;2023-11-21T07:47:43;6.40;;;4.35;;
25123;SDS011;13104;51.030;4.686;2023-11-21T07:50:09;7.68;;;4.53;;
25123;SDS011;13104;51.030;4.686;2023-11-21T07:52:35;6.05;;;3.92;;
25123;SDS011;13104;51.030;4.686;2023-11-21T07:55:01;8.65;;;4.03;;
25123;SDS011;13104;51.030;4.686;2023-11-21T07:57:27;8.52;;;5.13;;
25123;SDS011;13104;51.030;4.686;2023-11-21T07:59:54;9.60;;;4.75;;
25123;SDS011;13104;51.030;4.686;2023-11-21T08:02:20;11.75;;;4.95;;
25123;SDS011;13104;51.030;4.686;2023-11-21T08:04:46;7.35;;;3.78;;
25123;SDS011;13104;51.030;4.686;2023-11-21T08:07:14;8.20;;;4.65;;
25123;SDS011;13104;51.030;4.686;2023-11-21T08:09:41;9.57;;;4.72;;
25123;SDS011;13104;51.030;4.686;2023-11-21T08:12:09;11.43;;;4.88;;
25123;SDS011;13104;51.030;4.686;2023-11-21T08:14:36;8.18;;;5.18;;
25123;SDS011;13104;51.030;4.686;2023-11-21T08:17:04;6.78;;;4.63;;
25123;SDS011;13104;51.030;4.686;2023-11-21T08:19:30;7.38;;;4.22;;
25123;SDS011;13104;51.030;4.686;2023-11-21T08:21:58;10.80;;;4.90;;
25123;SDS011;13104;51.030;4.686;2023-11-21T08:24:24;9.80;;;5.60;;
25123;SDS011;13104;51.030;4.686;2023-11-21T08:26:50;9.88;;;4.03;;
25123;SDS011;13104;51.030;4.686;2023-11-21T08:29:17;12.02;;;5.20;;
25123;SDS011;13104;51.030;4.686;2023-11-21T08:31:43;6.60;;;4.28;;
25123;SDS011;13104;51.030;4.686;2023-11-21T08:34:12;11.00;;;5.50;;
25123;SDS011;13104;51.030;4.686;2023-11-21T08:36:42;9.43;;;5.20;;
25123;SDS011;13104;51.030;4.686;2023-11-21T08:39:09;9.65;;;5.13;;
25123;SDS011;13104;51.030;4.686;2023-11-21T08:41:38;12.25;;;4.63;;
25123;SDS011;13104;51.030;4.686;2023-11-21T08:44:04;13.38;;;4.80;;
25123;SDS011;13104;51.030;4.686;2023-11-21T08:46:33;5.72;;;4.10;;
25123;SDS011;13104;51.030;4.686;2023-11-21T08:49:01;9.38;;;4.93;;
25123;SDS011;13104;51.030;4.686;2023-11-21T08:51:27;8.90;;;4.75;;
25123;SDS011;13104;51.030;4.686;2023-11-21T08:53:54;12.38;;;4.97;;
25123;SDS011;13104;51.030;4.686;2023-11-21T08:56:24;15.93;;;5.35;;
25123;SDS011;13104;51.030;4.686;2023-11-21T08:58:50;7.00;;;4.65;;
25123;SDS011;13104;51.030;4.686;2023-11-21T09:01:16;18.90;;;5.13;;
25123;SDS011;13104;51.030;4.686;2023-11-21T09:03:42;9.82;;;5.57;;
25123;SDS011;13104;51.030;4.686;2023-11-21T09:06:09;9.00;;;5.18;;
25123;SDS011;13104;51.030;4.686;2023-11-21T09:08:35;8.38;;;4.97;;
25123;SDS011;13104;51.030;4.686;2023-11-21T09:11:01;10.02;;;5.07;;
25123;SDS011;13104;51.030;4.686;2023-11-21T09:13:27;17.73;;;5.53;;
25123;SDS011;13104;51.030;4.686;2023-11-21T09:15:54;8.27;;;4.70;;
25123;SDS011;13104;51.030;4.686;2023-11-21T09:18:20;12.57;;;5.28;;
25123;SDS011;13104;51.030;4.686;2023-11-21T09:20:47;6.40;;;4.60;;
25123;SDS011;13104;51.030;4.686;2023-11-21T09:23:13;11.32;;;5.70;;
25123;SDS011;13104;51.030;4.686;2023-11-21T09:25:39;11.70;;;5.40;;
25123;SDS011;13104;51.030;4.686;2023-11-21T09:28:05;9.38;;;4.75;;
25123;SDS011;13104;51.030;4.686;2023-11-21T09:30:34;9.85;;;4.68;;
25123;SDS011;13104;51.030;4.686;2023-11-21T09:33:01;8.82;;;5.05;;
25123;SDS011;13104;51.030;4.686;2023-11-21T09:35:27;12.13;;;5.13;;
25123;SDS011;13104;51.030;4.686;2023-11-21T09:37:54;7.63;;;4.18;;
25123;SDS011;13104;51.030;4.686;2023-11-21T09:40:21;13.05;;;5.15;;
25123;SDS011;13104;51.030;4.686;2023-11-21T09:42:49;10.38;;;5.60;;
25123;SDS011;13104;51.030;4.686;2023-11-21T09:45:21;10.05;;;5.25;;
25123;SDS011;13104;51.030;4.686;2023-11-21T09:47:49;15.38;;;5.47;;
25123;SDS011;13104;51.030;4.686;2023-11-21T09:50:18;14.40;;;4.30;;
25123;SDS011;13104;51.030;4.686;2023-11-21T09:55:15;18.40;;;5.13;;
25123;SDS011;13104;51.030;4.686;2023-11-21T09:57:43;16.90;;;5.28;;
25123;SDS011;13104;51.030;4.686;2023-11-21T10:00:10;12.80;;;5.43;;
25123;SDS011;13104;51.030;4.686;2023-11-21T10:02:37;15.07;;;5.80;;
25123;SDS011;13104;51.030;4.686;2023-11-21T10:05:04;9.93;;;5.75;;
25123;SDS011;13104;51.030;4.686;2023-11-21T10:07:31;6.13;;;4.53;;
25123;SDS011;13104;51.030;4.686;2023-11-21T10:09:57;15.40;;;5.13;;
25123;SDS011;13104;51.030;4.686;2023-11-21T10:12:25;21.15;;;5.13;;
25123;SDS011;13104;51.030;4.686;2023-11-21T10:14:52;9.55;;;4.93;;
25123;SDS011;13104;51.030;4.686;2023-11-21T10:17:20;7.05;;;4.45;;
25123;SDS011;13104;51.030;4.686;2023-11-21T10:19:51;7.75;;;5.22;;
25123;SDS011;13104;51.030;4.686;2023-11-21T10:22:19;7.30;;;4.38;;
25123;SDS011;13104;51.030;4.686;2023-11-21T10:24:45;8.90;;;5.00;;
25123;SDS011;13104;51.030;4.686;2023-11-21T10:27:12;8.18;;;4.35;;
25123;SDS011;13104;51.030;4.686;2023-11-21T10:29:39;14.93;;;4.38;;
25123;SDS011;13104;51.030;4.686;2023-11-21T10:32:06;11.52;;;5.03;;
25123;SDS011;13104;51.030;4.686;2023-11-21T10:34:33;8.77;;;4.70;;
25123;SDS011;13104;51.030;4.686;2023-11-21T10:36:59;9.20;;;4.82;;
25123;SDS011;13104;51.030;4.686;2023-11-21T10:39:36;9.82;;;4.82;;
25123;SDS011;13104;51.030;4.686;2023-11-21T10:42:02;7.43;;;4.30;;
25123;SDS011;13104;51.030;4.686;2023-11-21T10:44:28;7.10;;;4.03;;
25123;SDS011;13104;51.030;4.686;2023-11-21T10:46:55;7.13;;;4.05;;
25123;SDS011;13104;51.030;4.686;2023-11-21T10:49:21;10.23;;;4.60;;
25123;SDS011;13104;51.030;4.686;2023-11-21T10:51:49;5.55;;;3.80;;
25123;SDS011;13104;51.030;4.686;2023-11-21T10:54:21;7.57;;;3.70;;
25123;SDS011;13104;51.030;4.686;2023-11-21T10:56:50;13.63;;;4.72;;
25123;SDS011;13104;51.030;4.686;2023-11-21T10:59:19;12.85;;;4.05;;
25123;SDS011;13104;51.030;4.686;2023-11-21T11:01:49;7.13;;;3.55;;
25123;SDS011;13104;51.030;4.686;2023-11-21T11:04:20;6.10;;;3.28;;
25123;SDS011;13104;51.030;4.686;2023-11-21T11:06:54;7.00;;;3.50;;
25123;SDS011;13104;51.030;4.686;2023-11-21T11:09:21;4.80;;;2.70;;
25123;SDS011;13104;51.030;4.686;2023-11-21T11:11:48;4.43;;;2.78;;
25123;SDS011;13104;51.030;4.686;2023-11-21T11:14:14;4.68;;;2.83;;
25123;SDS011;13104;51.030;4.686;2023-11-21T11:16:41;5.88;;;3.15;;
25123;SDS011;13104;51.030;4.686;2023-11-21T11:19:10;4.88;;;2.92;;
25123;SDS011;13104;51.030;4.686;2023-11-21T11:27:15;5.70;;;3.13;;
25123;SDS011;13104;51.030;4.686;2023-11-21T11:35:01;4.15;;;2.50;;
25123;SDS011;13104;51.030;4.686;2023-11-21T11:37:29;4.78;;;2.83;;
25123;SDS011;13104;51.030;4.686;2023-11-21T11:39:56;6.75;;;2.85;;
25123;SDS011;13104;51.030;4.686;2023-11-21T11:42:22;3.72;;;2.92;;
25123;SDS011;13104;51.030;4.686;2023-11-21T11:44:49;4.80;;;2.47;;
25123;SDS011;13104;51.030;4.686;2023-11-21T11:52:43;6.70;;;2.85;;
25123;SDS011;13104;51.030;4.686;2023-11-21T11:55:10;3.72;;;2.90;;
25123;SDS011;13104;51.030;4.686;2023-11-21T11:57:37;4.45;;;2.67;;
25123;SDS011;13104;51.030;4.686;2023-11-21T12:00:11;2.50;;;2.20;;
25123;SDS011;13104;51.030;4.686;2023-11-21T12:02:41;8.77;;;1.95;;
25123;SDS011;13104;51.030;4.686;2023-11-21T12:05:10;3.22;;;2.20;;
25123;SDS011;13104;51.030;4.686;2023-11-21T12:07:44;3.75;;;2.00;;
25123;SDS011;13104;51.030;4.686;2023-11-21T12:10:12;6.15;;;1.70;;
25123;SDS011;13104;51.030;4.686;2023-11-21T12:12:41;4.22;;;2.40;;
25123;SDS011;13104;51.030;4.686;2023-11-21T12:15:09;3.70;;;1.85;;
25123;SDS011;13104;51.030;4.686;2023-11-21T12:17:35;6.18;;;2.17;;
25123;SDS011;13104;51.030;4.686;2023-11-21T12:20:02;3.65;;;2.03;;
25123;SDS011;13104;51.030;4.686;2023-11-21T12:22:29;3.63;;;2.65;;
25123;SDS011;13104;51.030;4.686;2023-11-21T12:24:56;3.28;;;2.15;;
25123;SDS011;13104;51.030;4.686;2023-11-21T12:27:22;2.83;;;1.95;;
25123;SDS011;13104;51.030;4.686;2023-11-21T12:29:48;4.50;;;1.65;;
25123;SDS011;13104;51.030;4.686;2023-11-21T12:32:14;2.78;;;2.03;;
25123;SDS011;13104;51.030;4.686;2023-11-21T12:34:43;2.75;;;1.90;;
25123;SDS011;13104;51.030;4.686;2023-11-21T12:37:09;3.58;;;2.25;;
25123;SDS011;13104;51.030;4.686;2023-11-21T12:39:35;2.97;;;2.00;;
25123;SDS011;13104;51.030;4.686;2023-11-21T12:42:01;2.97;;;2.05;;
25123;SDS011;13104;51.030;4.686;2023-11-21T12:44:28;3.10;;;2.00;;
25123;SDS011;13104;51.030;4.686;2023-11-21T12:46:54;2.70;;;1.95;;
25123;SDS011;13104;51.030;4.686;2023-11-21T12:49:20;2.22;;;2.03;;
25123;SDS011;13104;51.030;4.686;2023-11-21T12:51:47;2.45;;;1.67;;
25123;SDS011;13104;51.030;4.686;2023-11-21T12:54:13;1.92;;;1.70;;
25123;SDS011;13104;51.030;4.686;2023-11-21T12:56:40;2.20;;;1.48;;
25123;SDS011;13104;51.030;4.686;2023-11-21T12:59:06;1.60;;;1.50;;
25123;SDS011;13104;51.030;4.686;2023-11-21T13:01:36;2.35;;;1.83;;
25123;SDS011;13104;51.030;4.686;2023-11-21T13:04:04;1.60;;;1.50;;
25123;SDS011;13104;51.030;4.686;2023-11-21T13:06:35;2.55;;;1.48;;
25123;SDS011;13104;51.030;4.686;2023-11-21T13:09:06;1.35;;;1.00;;
25123;SDS011;13104;51.030;4.686;2023-11-21T13:11:35;1.80;;;1.70;;
25123;SDS011;13104;51.030;4.686;2023-11-21T13:14:02;4.05;;;1.63;;
25123;SDS011;13104;51.030;4.686;2023-11-21T13:16:28;2.33;;;1.52;;
25123;SDS011;13104;51.030;4.686;2023-11-21T13:18:56;2.90;;;2.00;;
25123;SDS011;13104;51.030;4.686;2023-11-21T13:21:23;2.45;;;1.60;;
25123;SDS011;13104;51.030;4.686;2023-11-21T13:23:49;2.85;;;1.48;;
25123;SDS011;13104;51.030;4.686;2023-11-21T13:26:18;2.08;;;1.70;;
25123;SDS011;13104;51.030;4.686;2023-11-21T13:28:45;1.23;;;1.13;;
25123;SDS011;13104;51.030;4.686;2023-11-21T13:31:12;2.30;;;1.42;;
25123;SDS011;13104;51.030;4.686;2023-11-21T13:33:52;2.17;;;1.70;;
25123;SDS011;13104;51.030;4.686;2023-11-21T13:36:24;3.10;;;1.35;;
25123;SDS011;13104;51.030;4.686;2023-11-21T13:38:50;14.20;;;1.83;;
25123;SDS011;13104;51.030;4.686;2023-11-21T13:41:20;1.55;;;1.25;;
25123;SDS011;13104;51.030;4.686;2023-11-21T13:43:53;2.53;;;1.20;;
25123;SDS011;13104;51.030;4.686;2023-11-21T13:46:28;1.73;;;1.42;;
25123;SDS011;13104;51.030;4.686;2023-11-21T13:48:59;1.95;;;1.58;;
25123;SDS011;13104;51.030;4.686;2023-11-21T13:51:25;1.75;;;1.63;;
25123;SDS011;13104;51.030;4.686;2023-11-21T13:54:05;2.90;;;2.10;;
25123;SDS011;13104;51.030;4.686;2023-11-21T13:56:34;2.67;;;1.92;;
25123;SDS011;13104;51.030;4.686;2023-11-21T13:59:01;2.00;;;1.67;;
25123;SDS011;13104;51.030;4.686;2023-11-21T14:01:38;2.40;;;1.92;;
25123;SDS011;13104;51.030;4.686;2023-11-21T14:04:19;2.20;;;2.00;;
25123;SDS011;13104;51.030;4.686;2023-11-21T14:06:59;2.97;;;1.88;;
25123;SDS011;13104;51.030;4.686;2023-11-21T14:09:36;2.20;;;1.60;;
25123;SDS011;13104;51.030;4.686;2023-11-21T14:12:08;3.13;;;1.73;;
25123;SDS011;13104;51.030;4.686;2023-11-21T14:14:37;2.28;;;1.70;;
25123;SDS011;13104;51.030;4.686;2023-11-21T14:17:04;2.15;;;1.55;;
25123;SDS011;13104;51.030;4.686;2023-11-21T14:19:32;2.83;;;1.60;;
25123;SDS011;13104;51.030;4.686;2023-11-21T14:21:59;2.63;;;1.95;;
25123;SDS011;13104;51.030;4.686;2023-11-21T14:24:26;1.85;;;1.50;;
25123;SDS011;13104;51.030;4.686;2023-11-21T14:26:54;2.80;;;1.92;;
25123;SDS011;13104;51.030;4.686;2023-11-21T14:29:20;1.70;;;1.60;;
25123;SDS011;13104;51.030;4.686;2023-11-21T14:31:48;2.50;;;1.88;;
25123;SDS011;13104;51.030;4.686;2023-11-21T14:34:16;2.15;;;1.75;;
25123;SDS011;13104;51.030;4.686;2023-11-21T14:36:43;6.07;;;2.13;;
25123;SDS011;13104;51.030;4.686;2023-11-21T14:39:10;3.60;;;1.50;;
25123;SDS011;13104;51.030;4.686;2023-11-21T14:41:48;3.40;;;2.10;;
25123;SDS011;13104;51.030;4.686;2023-11-21T14:44:14;2.13;;;1.50;;
25123;SDS011;13104;51.030;4.686;2023-11-21T14:46:40;2.38;;;1.85;;
25123;SDS011;13104;51.030;4.686;2023-11-21T14:49:11;2.05;;;1.80;;
25123;SDS011;13104;51.030;4.686;2023-11-21T14:51:52;2.70;;;1.88;;
25123;SDS011;13104;51.030;4.686;2023-11-21T14:54:48;2.58;;;1.60;;
25123;SDS011;13104;51.030;4.686;2023-11-21T14:57:24;2.45;;;1.48;;
25123;SDS011;13104;51.030;4.686;2023-11-21T14:59:52;2.17;;;1.42;;
25123;SDS011;13104;51.030;4.686;2023-11-21T15:02:22;1.88;;;1.48;;